createdAt,value
2022-09-26T00:00:46.620Z,75.23
2022-09-26T00:04:58.463Z,75.20
2022-09-26T00:09:10.126Z,75.27
2022-09-26T00:13:21.681Z,75.69
2022-09-26T00:17:33.250Z,75.78
2022-09-26T00:21:44.852Z,75.84
2022-09-26T00:25:57.587Z,76.14
2022-09-26T00:30:09.750Z,76.15
2022-09-26T00:34:21.419Z,76.35
2022-09-26T00:38:34.189Z,76.42
2022-09-26T00:42:45.793Z,76.10
2022-09-26T00:46:57.644Z,75.99
2022-09-26T00:51:10.642Z,76.24
2022-09-26T00:55:28.942Z,76.16
2022-09-26T00:59:49.381Z,76.15
2022-09-26T01:04:03.054Z,76.54
2022-09-26T01:08:18.060Z,76.31
2022-09-26T01:12:31.863Z,77.01
2022-09-26T01:16:51.535Z,76.78
2022-09-26T01:21:14.697Z,76.82
2022-09-26T01:26:00.128Z,76.75
2022-09-26T01:30:21.422Z,77.01
2022-09-26T01:34:50.769Z,77.32
2022-09-26T01:39:36.460Z,77.10
2022-09-26T01:44:16.228Z,76.95
2022-09-26T01:48:32.062Z,77.49
2022-09-26T01:52:53.536Z,77.44
2022-09-26T01:57:10.938Z,77.57
2022-09-26T02:01:26.788Z,77.54
2022-09-26T02:05:46.688Z,77.71
2022-09-26T02:10:03.572Z,77.56
2022-09-26T02:14:19.945Z,77.27
2022-09-26T02:18:43.853Z,77.17
2022-09-26T02:22:57.683Z,77.26
2022-09-26T02:27:09.423Z,77.62
2022-09-26T02:31:24.680Z,77.62
2022-09-26T02:35:55.238Z,77.17
2022-09-26T02:40:08.202Z,77.36
2022-09-26T02:44:25.913Z,77.38
2022-09-26T02:48:50.557Z,77.01
2022-09-26T02:53:25.221Z,77.21
2022-09-26T02:57:51.186Z,76.93
2022-09-26T03:02:15.838Z,76.60
2022-09-26T03:06:39.809Z,76.54
2022-09-26T03:10:54.250Z,76.54
2022-09-26T03:15:07.530Z,76.40
2022-09-26T03:19:48.269Z,76.36
2022-09-26T03:23:59.941Z,76.72
2022-09-26T03:28:12.240Z,76.77
2022-09-26T03:32:24.415Z,76.83
2022-09-26T03:36:35.897Z,77.21
2022-09-26T03:40:48.333Z,77.40
2022-09-26T03:45:29.474Z,77.50
2022-09-26T03:49:48.917Z,77.34
2022-09-26T03:54:00.559Z,77.42
2022-09-26T03:58:13.400Z,77.36
2022-09-26T04:02:25.503Z,77.35
2022-09-26T04:06:52.406Z,77.45
2022-09-26T04:11:10.020Z,77.45
2022-09-26T04:15:21.749Z,77.31
2022-09-26T04:19:36.802Z,77.11
2022-09-26T04:23:49.447Z,77.64
2022-09-26T04:28:02.530Z,77.45
2022-09-26T04:32:14.140Z,77.31
2022-09-26T04:36:51.261Z,76.71
2022-09-26T04:41:13.764Z,76.46
2022-09-26T04:45:25.460Z,76.35
2022-09-26T04:49:37.942Z,76.12
2022-09-26T04:53:50.439Z,76.09
2022-09-26T04:58:05.545Z,76.20
2022-09-26T05:02:17.205Z,76.02
2022-09-26T05:06:28.972Z,75.78
2022-09-26T05:10:41.656Z,75.50
2022-09-26T05:14:53.976Z,75.39
2022-09-26T05:19:05.626Z,75.18
2022-09-26T05:23:45.069Z,75.79
2022-09-26T05:27:58.010Z,75.20
2022-09-26T05:32:10.515Z,75.74
2022-09-26T05:36:24.855Z,76.10
2022-09-26T05:40:55.341Z,75.62
2022-09-26T05:45:08.739Z,75.70
2022-09-26T05:49:20.326Z,76.00
2022-09-26T05:53:32.663Z,75.95
2022-09-26T05:57:55.593Z,76.16
2022-09-26T06:02:11.329Z,76.07
2022-09-26T06:06:49.138Z,76.82
2022-09-26T06:11:13.855Z,76.44
2022-09-26T06:15:25.297Z,76.92
2022-09-26T06:19:36.799Z,77.04
2022-09-26T06:23:48.338Z,76.84
2022-09-26T06:28:01.419Z,76.80
2022-09-26T06:32:14.738Z,77.20
2022-09-26T06:36:55.449Z,77.20
2022-09-26T06:41:07.415Z,76.44
2022-09-26T06:45:18.984Z,76.46
2022-09-26T06:49:53.055Z,76.34
2022-09-26T06:54:17.555Z,76.16
2022-09-26T06:58:29.368Z,75.61
2022-09-26T07:02:52.750Z,75.56
2022-09-26T07:07:11.531Z,76.08
2022-09-26T07:11:56.615Z,76.22
2022-09-26T07:15:58.395Z,75.86
2022-09-26T07:20:40.134Z,75.42
2022-09-26T07:25:13.106Z,75.46
2022-09-26T07:29:25.007Z,75.25
2022-09-26T07:33:39.407Z,75.10
2022-09-26T07:37:55.434Z,75.14
2022-09-26T07:42:07.228Z,75.00
2022-09-26T07:46:37.771Z,74.72
2022-09-26T07:51:00.023Z,74.68
2022-09-26T07:55:33.275Z,74.81
2022-09-26T07:59:45.752Z,74.73
2022-09-26T08:04:25.916Z,74.31
2022-09-26T08:08:38.086Z,74.28
2022-09-26T08:13:08.043Z,74.38
2022-09-26T08:17:36.971Z,74.31
2022-09-26T08:21:49.145Z,74.28
2022-09-26T08:26:04.114Z,74.28
2022-09-26T08:30:31.217Z,74.72
2022-09-26T08:34:46.486Z,74.78
2022-09-26T08:39:24.160Z,73.73
2022-09-26T08:44:05.855Z,74.54
2022-09-26T08:48:30.886Z,74.28
2022-09-26T08:53:08.720Z,73.91
2022-09-26T08:57:54.123Z,74.03
2022-09-26T09:02:18.415Z,74.10
2022-09-26T09:06:38.940Z,74.51
2022-09-26T09:10:50.415Z,74.87
2022-09-26T09:15:59.325Z,76.01
2022-09-26T09:20:49.799Z,76.40
2022-09-26T09:25:30.931Z,77.03
2022-09-26T09:29:56.542Z,77.27
2022-09-26T09:34:32.633Z,77.69
2022-09-26T09:39:06.561Z,77.79
2022-09-26T09:43:48.568Z,78.04
2022-09-26T09:48:00.487Z,78.56
2022-09-26T09:52:30.871Z,78.83
2022-09-26T09:56:42.395Z,78.84
2022-09-26T10:01:11.156Z,78.62
2022-09-26T10:05:42.519Z,78.80
2022-09-26T10:09:56.983Z,79.07
2022-09-26T10:14:33.980Z,79.25
2022-09-26T10:19:04.076Z,79.02
2022-09-26T10:23:26.408Z,79.78
2022-09-26T10:27:48.055Z,79.48
2022-09-26T10:32:01.059Z,80.27
2022-09-26T10:36:27.884Z,80.27
2022-09-26T10:40:53.097Z,80.55
2022-09-26T10:45:15.776Z,81.07
2022-09-26T10:49:51.290Z,82.09
2022-09-26T10:54:34.349Z,82.49
2022-09-26T10:58:47.018Z,82.95
2022-09-26T11:03:00.286Z,83.26
2022-09-26T11:07:26.561Z,83.45
2022-09-26T11:11:53.336Z,84.18
2022-09-26T11:16:13.508Z,84.34
2022-09-26T11:21:00.270Z,85.12
2022-09-26T11:25:21.275Z,85.47
2022-09-26T11:29:46.673Z,85.27
2022-09-26T11:34:04.723Z,85.38
2022-09-26T11:38:46.344Z,85.67
2022-09-26T11:43:25.882Z,86.05
2022-09-26T11:48:02.603Z,85.83
2022-09-26T11:52:50.194Z,85.77
2022-09-26T11:57:08.534Z,86.37
2022-09-26T12:01:27.321Z,85.93
2022-09-26T12:06:02.501Z,86.25
2022-09-26T12:10:41.710Z,86.25
2022-09-26T12:15:20.120Z,86.42
2022-09-26T12:19:41.813Z,86.44
2022-09-26T12:23:58.726Z,86.68
2022-09-26T12:28:48.550Z,86.60
2022-09-26T12:33:14.680Z,86.66
2022-09-26T12:37:26.199Z,86.88
2022-09-26T12:42:02.850Z,87.09
2022-09-26T12:46:35.552Z,86.94
2022-09-26T12:51:29.921Z,86.79
2022-09-26T12:55:53.665Z,86.67
2022-09-26T13:00:22.892Z,86.69
2022-09-26T13:05:16.285Z,86.73
2022-09-26T13:09:58.081Z,86.40
2022-09-26T13:14:31.454Z,86.65
2022-09-26T13:18:51.647Z,86.45
2022-09-26T13:23:16.310Z,86.33
2022-09-26T13:27:36.141Z,85.98
2022-09-26T13:31:55.181Z,86.02
2022-09-26T13:36:09.337Z,86.23
2022-09-26T13:40:36.530Z,86.05
2022-09-26T13:45:34.561Z,86.34
2022-09-26T13:50:05.085Z,86.71
2022-09-26T13:54:51.864Z,86.94
2022-09-26T13:59:12.362Z,87.22
2022-09-26T14:03:24.005Z,86.76
2022-09-26T14:08:04.889Z,86.62
2022-09-26T14:12:33.384Z,86.45
2022-09-26T14:16:52.342Z,86.75
2022-09-26T14:21:09.887Z,86.91
2022-09-26T14:25:46.166Z,86.70
2022-09-26T14:30:23.115Z,86.83
2022-09-26T14:34:35.459Z,86.60
2022-09-26T14:38:49.558Z,86.47
2022-09-26T14:43:17.177Z,86.31
2022-09-26T14:47:38.630Z,86.17
2022-09-26T14:51:56.551Z,86.41
2022-09-26T14:56:10.477Z,86.49
2022-09-26T15:00:40.562Z,86.48
2022-09-26T15:05:12.542Z,86.22
2022-09-26T15:09:33.020Z,86.33
2022-09-26T15:13:46.132Z,86.15
2022-09-26T15:18:14.730Z,85.96
2022-09-26T15:22:29.779Z,85.66
2022-09-26T15:26:43.005Z,85.90
2022-09-26T15:31:21.437Z,85.59
2022-09-26T15:35:33.910Z,85.58
2022-09-26T15:39:45.516Z,85.68
2022-09-26T15:44:01.033Z,85.46
2022-09-26T15:48:24.665Z,85.56
2022-09-26T15:52:41.260Z,85.62
2022-09-26T15:56:55.376Z,85.46
2022-09-26T16:01:15.656Z,85.68
2022-09-26T16:05:27.979Z,85.79
2022-09-26T16:09:43.178Z,85.65
2022-09-26T16:13:56.667Z,85.86
2022-09-26T16:18:25.255Z,86.23
2022-09-26T16:22:36.839Z,86.18
2022-09-26T16:26:50.188Z,86.67
2022-09-26T16:31:14.308Z,86.51
2022-09-26T16:35:29.541Z,86.64
2022-09-26T16:39:41.432Z,86.25
2022-09-26T16:44:06.573Z,86.07
2022-09-26T16:48:42.510Z,86.22
2022-09-26T16:53:25.769Z,86.33
2022-09-26T16:57:53.361Z,86.11
2022-09-26T17:02:09.627Z,86.25
2022-09-26T17:06:21.173Z,86.22
2022-09-26T17:10:37.373Z,86.72
2022-09-26T17:14:56.479Z,86.61
2022-09-26T17:19:12.101Z,86.88
2022-09-26T17:23:41.150Z,86.80
2022-09-26T17:27:57.918Z,86.59
2022-09-26T17:32:13.905Z,86.47
2022-09-26T17:36:29.589Z,86.78
2022-09-26T17:40:45.531Z,86.23
2022-09-26T17:44:57.141Z,86.27
2022-09-26T17:49:37.104Z,86.31
2022-09-26T17:53:50.911Z,86.36
2022-09-26T17:58:04.979Z,86.42
2022-09-26T18:02:30.016Z,86.24
2022-09-26T18:06:42.885Z,86.60
2022-09-26T18:11:02.704Z,86.75
2022-09-26T18:15:20.937Z,86.37
2022-09-26T18:19:32.389Z,86.51
2022-09-26T18:23:52.126Z,86.41
2022-09-26T18:28:13.292Z,86.24
2022-09-26T18:32:31.652Z,86.55
2022-09-26T18:36:43.199Z,86.52
2022-09-26T18:40:58.030Z,86.75
2022-09-26T18:45:13.983Z,86.30
2022-09-26T18:49:26.167Z,86.83
2022-09-26T18:53:37.886Z,86.94
2022-09-26T18:58:07.994Z,86.76
2022-09-26T19:02:23.036Z,86.51
2022-09-26T19:06:36.893Z,86.84
2022-09-26T19:10:48.411Z,86.88
2022-09-26T19:14:59.945Z,86.81
2022-09-26T19:19:12.166Z,87.04
2022-09-26T19:23:29.083Z,86.78
2022-09-26T19:27:51.996Z,86.91
2022-09-26T19:32:05.215Z,86.49
2022-09-26T19:36:19.060Z,86.90
2022-09-26T19:40:30.696Z,87.00
2022-09-26T19:44:42.385Z,87.28
2022-09-26T19:48:54.168Z,87.19
2022-09-26T19:53:12.671Z,87.09
2022-09-26T19:57:24.168Z,87.49
2022-09-26T20:01:35.717Z,87.47
2022-09-26T20:05:52.082Z,87.34
2022-09-26T20:10:13.870Z,87.55
2022-09-26T20:14:25.569Z,87.92
2022-09-26T20:18:37.198Z,87.90
2022-09-26T20:22:51.015Z,88.06
2022-09-26T20:27:06.916Z,88.34
2022-09-26T20:31:22.675Z,88.53
2022-09-26T20:35:36.944Z,88.78
2022-09-26T20:39:48.527Z,88.61
2022-09-26T20:44:09.141Z,88.28
2022-09-26T20:48:26.953Z,87.46
2022-09-26T20:52:38.970Z,87.36
2022-09-26T20:56:50.595Z,87.32
2022-09-26T21:01:02.150Z,87.31
2022-09-26T21:05:24.378Z,86.98
2022-09-26T21:09:35.858Z,87.09
2022-09-26T21:13:48.144Z,87.22
2022-09-26T21:18:01.177Z,87.03
2022-09-26T21:22:13.025Z,87.36
2022-09-26T21:26:31.113Z,87.31
2022-09-26T21:30:43.472Z,86.87
2022-09-26T21:35:01.762Z,86.86
2022-09-26T21:39:15.590Z,87.15
2022-09-26T21:43:31.228Z,87.41
2022-09-26T21:47:43.177Z,87.67
2022-09-26T21:52:03.228Z,87.20
2022-09-26T21:56:21.835Z,87.35
2022-09-26T22:00:33.399Z,87.21
2022-09-26T22:04:44.971Z,87.35
2022-09-26T22:08:56.557Z,86.98
2022-09-26T22:13:08.084Z,86.78
2022-09-26T22:17:19.693Z,86.92
2022-09-26T22:21:31.696Z,86.98
2022-09-26T22:25:48.902Z,87.06
2022-09-26T22:30:00.459Z,86.81
2022-09-26T22:34:12.045Z,86.71
2022-09-26T22:38:23.600Z,86.61
2022-09-26T22:42:35.196Z,86.45
2022-09-26T22:46:46.886Z,86.62
2022-09-26T22:50:58.753Z,86.75
2022-09-26T22:55:10.397Z,86.89
2022-09-26T22:59:21.974Z,86.81
2022-09-26T23:03:34.292Z,86.71
2022-09-26T23:07:45.921Z,87.00
2022-09-26T23:11:57.550Z,87.04
2022-09-26T23:16:14.369Z,87.04
2022-09-26T23:20:25.962Z,87.10
2022-09-26T23:24:37.581Z,86.97
2022-09-26T23:28:50.665Z,87.02
2022-09-26T23:33:02.361Z,87.11
2022-09-26T23:37:13.934Z,87.23
2022-09-26T23:41:25.696Z,87.50
2022-09-26T23:45:37.281Z,87.38
2022-09-26T23:49:48.897Z,87.86
2022-09-26T23:54:00.507Z,87.77
2022-09-26T23:58:13.544Z,87.91
